This is the latest recevied weather packets stored in our database for station/object KC1TWD. If no packets are shown the sender has not sent any weather packets the latest 1 day(s).
| Time | Temp. | Humidity | Pressure | Rain* | Wind** | Luminosity | Snow |
|---|---|---|---|---|---|---|---|
| 1778014715 | 27.78° C | 37% | 1003.3 hPa | 0 mm | 0.45 m/s, 247° | - | - |
| 1778014414 | 28.33° C | 34% | 1003.3 hPa | 0 mm | 1.79 m/s, 146° | - | - |
| 1778014110 | 27.78° C | 35% | 1003.2 hPa | 0 mm | 0.45 m/s, 191° | - | - |
| 1778013808 | 28.33° C | 35% | 1003.4 hPa | 0 mm | 0.45 m/s, 336° | - | - |
| 1778013505 | 27.78° C | 35% | 1003.2 hPa | 0 mm | 0.45 m/s, 128° | - | - |
| 1778013202 | 27.78° C | 34% | 1003.7 hPa | 0 mm | 3.58 m/s, 176° | - | - |
| 1778012898 | 27.78° C | 35% | 1003.3 hPa | 0 mm | 0.89 m/s, 94° | - | - |
| 1778012594 | 27.78° C | 36% | 1003.2 hPa | 0 mm | 0.45 m/s, 108° | - | - |
| 1778012291 | 28.33° C | 35% | 1003.4 hPa | 0 mm | 1.79 m/s, 172° | - | - |
| 1778011989 | 28.89° C | 34% | 1003.3 hPa | 0 mm | 1.34 m/s, 141° | - | - |
| 1778011687 | 28.33° C | 34% | 1003.4 hPa | 0 mm | 0.45 m/s, 147° | - | - |
| 1778011383 | 28.33° C | 35% | 1003.6 hPa | 0 mm | 0.89 m/s, 252° | - | - |
| 1778011078 | 27.78° C | 36% | 1003.7 hPa | 0 mm | 0.45 m/s, 224° | - | - |
| 1778010777 | 27.78° C | 35% | 1003.6 hPa | 0 mm | 1.79 m/s, 116° | - | - |
| 1778010473 | 27.78° C | 34% | 1003.7 hPa | 0 mm | 1.79 m/s, 37° | - | - |
| 1778010170 | 28.33° C | 35% | 1003.9 hPa | 0 mm | 1.79 m/s, 104° | - | - |
| 1778009865 | 28.89° C | 35% | 1003.7 hPa | 0 mm | 0.89 m/s, 199° | - | - |
| 1778009564 | 28.89° C | 33% | 1003.8 hPa | 0 mm | 0.45 m/s, 72° | - | - |
| 1778009262 | 29.44° C | 35% | 1003.8 hPa | 0 mm | 0 m/s | - | - |
| 1778008959 | 28.33° C | 35% | 1003.9 hPa | 0 mm | 1.34 m/s, 57° | - | - |
| 1778008657 | 27.78° C | 36% | 1003.9 hPa | 0 mm | 2.24 m/s, 322° | - | - |
| 1778008355 | 27.78° C | 34% | 1003.9 hPa | 0 mm | 0.89 m/s, 92° | - | - |
| 1778008051 | 28.33° C | 35% | 1004 hPa | 0 mm | 0.89 m/s, 250° | - | - |
| 1778007751 | 28.89° C | 34% | 1003.9 hPa | 0 mm | 0.89 m/s, 180° | - | - |
| 1778007448 | 28.89° C | 33% | 1004 hPa | 0 mm | 1.34 m/s, 232° | - | - |
* Rain latest hour (hover to see other rain measurements)
** Current wind speed in m/s (hover to see current wind gust speed)